Terminal Aerodrome Forecast
Issued by NWS

Home | Current Version | Previous Version | Graphics & Text | Print | Product List | Glossary On
Versions: 1 2 3 4 5 6 7 8 9 10 11 12 13 14 15 16 17
000
FTUS43 KBIS 200524
TAFJMS
TAF
KJMS 200524Z 2006/2106 34008KT P6SM VCSH BKN100 OVC150
     FM201100 VRB05KT P6SM SCT040 BKN100
     FM202000 29007KT P6SM BKN050
     FM210000 32009KT P6SM BKN080=

USA.gov is the U.S. government's official web portal to all federal, state and local government web resources and services.